Time;durP1;ratioP1;P1;durP2;ratioP2;P2;SDS_P1;SDS_P2;PMS_P1;PMS_P2;Temp;Humidity;BMP_temperature;BMP_pressure;BME280_temperature;BME280_humidity;BME280_pressure;Samples;Min_cycle;Max_cycle;Signal;HPM_P1;HPM_P2
2024/01/20 00:01:41;;;;;;;26.83;15.77;;;;;;;0.87;81.85;102364.16;5047645;28;20064;-62
2024/01/20 00:04:11;;;;;;;33.60;17.17;;;;;;;0.88;82.86;102363.13;5046243;28;20460;-62
2024/01/20 00:06:48;;;;;;;31.60;18.45;;;;;;;1.05;82.82;102356.22;5046032;28;20064;-61
2024/01/20 00:09:17;;;;;;;28.90;17.20;;;;;;;1.15;82.10;102350.38;5047111;28;20156;-60
2024/01/20 00:11:56;;;;;;;30.42;15.27;;;;;;;1.20;81.55;102347.84;5046940;28;20044;-60
2024/01/20 00:14:23;;;;;;;24.50;15.27;;;;;;;1.17;81.94;102358.28;5048214;28;20053;-63
2024/01/20 00:16:51;;;;;;;40.40;22.38;;;;;;;0.99;82.78;102367.88;5047686;28;20468;-58
2024/01/20 00:19:18;;;;;;;28.55;17.08;;;;;;;1.02;82.52;102375.63;5047469;28;20056;-60
2024/01/20 00:21:46;;;;;;;28.25;16.42;;;;;;;1.17;82.08;102367.25;5061976;28;20054;-59
2024/01/20 00:24:13;;;;;;;26.40;16.08;;;;;;;1.12;81.89;102370.59;5055965;28;20057;-61
2024/01/20 00:26:41;;;;;;;29.08;16.42;;;;;;;1.01;81.25;102367.72;5029327;28;20052;-60
2024/01/20 00:29:09;;;;;;;29.45;17.13;;;;;;;0.90;82.51;102358.31;5035279;28;20053;-64
2024/01/20 00:31:38;;;;;;;28.50;17.70;;;;;;;0.90;82.72;102362.91;5047961;28;20571;-64
2024/01/20 00:34:05;;;;;;;28.92;16.77;;;;;;;0.94;82.64;102366.88;5047883;28;20057;-63
2024/01/20 00:36:35;;;;;;;29.65;16.30;;;;;;;0.91;82.70;102368.13;5047705;28;20313;-63
2024/01/20 00:39:05;;;;;;;26.00;15.88;;;;;;;0.90;82.14;102369.19;5049636;28;20056;-64
2024/01/20 00:41:33;;;;;;;26.63;16.55;;;;;;;1.03;82.12;102368.31;5082373;28;20057;-63
2024/01/20 00:44:05;;;;;;;26.50;15.68;;;;;;;0.70;82.38;102381.03;5050048;28;20372;-63
2024/01/20 00:46:38;;;;;;;28.63;15.70;;;;;;;0.71;83.15;102385.44;5051313;28;20374;-62
2024/01/20 00:49:07;;;;;;;28.48;16.27;;;;;;;0.83;82.76;102387.31;5051634;28;20048;-63
2024/01/20 00:51:35;;;;;;;30.65;15.43;;;;;;;0.69;83.30;102387.53;5049457;28;20061;-64
2024/01/20 00:54:03;;;;;;;28.27;17.27;;;;;;;0.93;82.70;102384.19;5051698;28;20397;-63
2024/01/20 00:56:32;;;;;;;30.70;16.45;;;;;;;0.96;82.60;102387.31;5051653;28;20053;-63
2024/01/20 00:58:59;;;;;;;26.55;15.40;;;;;;;1.06;82.13;102389.63;5070296;28;20048;-63
2024/01/20 01:01:27;;;;;;;27.52;17.00;;;;;;;1.04;81.95;102399.84;5069409;28;20051;-64
2024/01/20 01:03:58;;;;;;;27.00;15.88;;;;;;;0.77;82.04;102400.88;5070971;28;20377;-62
2024/01/20 01:06:28;;;;;;;28.65;17.27;;;;;;;0.93;82.20;102389.59;5069840;28;20143;-63
2024/01/20 01:08:58;;;;;;;28.52;16.30;;;;;;;0.81;82.07;102385.84;5069634;28;20067;-63
2024/01/20 01:11:25;;;;;;;27.17;16.55;;;;;;;0.95;81.83;102390.22;5053971;28;20053;-65
2024/01/20 01:13:52;;;;;;;29.08;16.20;;;;;;;0.98;81.42;102387.09;5045415;28;20065;-63
2024/01/20 01:16:20;;;;;;;24.23;14.88;;;;;;;0.76;81.92;102396.50;5032271;28;20041;-57
2024/01/20 01:18:54;;;;;;;29.08;16.27;;;;;;;0.71;81.96;102391.72;5046448;28;20049;-58
2024/01/20 01:21:21;;;;;;;29.50;16.10;;;;;;;0.88;81.63;102392.09;5038656;28;20069;-60
2024/01/20 01:23:48;;;;;;;29.80;15.80;;;;;;;0.56;82.49;102393.75;5074142;28;20139;-61
2024/01/20 01:26:17;;;;;;;27.27;16.00;;;;;;;0.68;82.40;102394.81;5054392;28;20068;-63
2024/01/20 01:28:44;;;;;;;27.90;15.93;;;;;;;0.71;81.54;102391.72;5030371;28;20049;-63
2024/01/20 01:31:11;;;;;;;26.55;14.90;;;;;;;0.85;81.50;102389.81;5044333;28;20064;-60
2024/01/20 01:33:39;;;;;;;26.38;15.68;;;;;;;0.95;81.18;102385.66;5049724;28;20064;-58
2024/01/20 01:36:06;;;;;;;26.63;14.82;;;;;;;0.81;80.78;102383.97;5057372;28;20067;-59
2024/01/20 01:38:40;;;;;;;24.30;14.70;;;;;;;1.02;80.61;102386.47;5054755;28;20041;-60
2024/01/20 01:41:20;;;;;;;25.92;15.55;;;;;;;0.86;80.61;102389.63;5052341;28;20048;-57
2024/01/20 01:44:00;;;;;;;28.88;16.75;;;;;;;0.87;80.71;102399.41;5026143;28;20075;-61
2024/01/20 01:46:45;;;;;;;26.50;14.85;;;;;;;0.76;80.11;102404.63;5052923;28;20456;-61
2024/01/20 01:49:13;;;;;;;30.10;14.95;;;;;;;1.03;80.14;102400.84;5052928;28;20408;-61
2024/01/20 01:51:58;;;;;;;26.13;14.50;;;;;;;0.82;79.36;102415.47;5035698;28;20060;-60
2024/01/20 01:54:39;;;;;;;;;;;;;;;0.57;80.61;102408.16;5039840;28;20055;-59
2024/01/20 01:57:14;;;;;;;30.40;16.63;;;;;;;0.55;81.85;102418.38;5058780;28;19947;-62
2024/01/20 01:59:52;;;;;;;26.77;15.80;;;;;;;0.53;81.53;102418.59;5071516;28;20044;-63
2024/01/20 02:02:27;;;;;;;26.05;15.35;;;;;;;0.69;82.43;102410.06;5070807;28;20506;-62
2024/01/20 02:05:02;;;;;;;27.90;16.13;;;;;;;0.68;81.80;102415.69;5069491;28;20052;-64
2024/01/20 02:07:33;;;;;;;26.38;15.27;;;;;;;0.61;82.08;102422.97;5031228;28;20579;-64
2024/01/20 02:10:21;;;;;;;28.27;16.48;;;;;;;0.64;82.66;102417.97;5048286;28;20053;-61
2024/01/20 02:12:56;;;;;;;29.50;14.68;;;;;;;0.77;82.41;102427.97;5036369;28;20061;-61
2024/01/20 02:15:30;;;;;;;28.85;14.55;;;;;;;0.40;82.33;102420.44;5034259;28;20060;-63
2024/01/20 02:17:57;;;;;;;27.45;14.95;;;;;;;0.54;82.59;102417.53;5049150;28;20053;-62
2024/01/20 02:20:25;;;;;;;29.55;15.75;;;;;;;0.61;82.89;102418.38;5047507;28;20045;-61
2024/01/20 02:22:52;;;;;;;29.42;16.38;;;;;;;0.48;81.74;102417.53;5031802;28;20072;-61
2024/01/20 02:25:19;;;;;;;29.10;16.42;;;;;;;0.17;82.57;102425.38;5100509;28;20118;-62
2024/01/20 02:27:47;;;;;;;29.73;16.05;;;;;;;0.13;83.29;102418.69;5069317;28;20052;-63
2024/01/20 02:30:14;;;;;;;26.40;15.65;;;;;;;0.40;82.85;102418.53;5066458;28;20053;-64
2024/01/20 02:32:42;;;;;;;27.30;15.63;;;;;;;0.40;82.62;102420.44;5048862;28;20061;-63
2024/01/20 02:35:09;;;;;;;28.60;16.55;;;;;;;0.43;82.77;102425.44;5049086;28;20052;-62
2024/01/20 02:37:36;;;;;;;33.17;16.98;;;;;;;0.62;82.77;102417.34;5066200;28;20056;-62
2024/01/20 02:40:04;;;;;;;29.73;15.35;;;;;;;0.65;82.06;102424.22;5084361;28;20427;-62
2024/01/20 02:42:32;;;;;;;27.35;15.25;;;;;;;0.55;82.23;102424.63;5053957;28;20055;-63
2024/01/20 02:44:59;;;;;;;28.02;15.10;;;;;;;0.60;82.40;102426.72;5049261;28;20061;-60
2024/01/20 02:47:26;;;;;;;29.05;15.70;;;;;;;0.45;82.11;102426.06;5047185;28;20053;-63
2024/01/20 02:49:54;;;;;;;26.30;14.65;;;;;;;0.45;81.70;102436.91;5048755;28;20471;-58
2024/01/20 02:52:21;;;;;;;27.90;15.50;;;;;;;0.49;82.13;102436.28;5051671;28;20052;-59
2024/01/20 02:54:48;;;;;;;26.90;14.77;;;;;;;0.37;82.07;102439.78;5047080;28;20071;-60
2024/01/20 02:57:16;;;;;;;24.83;14.25;;;;;;;0.62;81.80;102425.47;5054866;28;20052;-59
2024/01/20 02:59:43;;;;;;;26.70;14.57;;;;;;;0.71;81.02;102426.97;5066824;28;20049;-60
2024/01/20 03:02:11;;;;;;;29.90;15.02;;;;;;;0.49;80.92;102433.56;5083561;28;20135;-60
2024/01/20 03:04:38;;;;;;;27.65;15.18;;;;;;;0.33;82.12;102427.72;5083361;28;20063;-61
2024/01/20 03:07:05;;;;;;;27.75;16.00;;;;;;;0.45;82.31;102431.50;5068639;28;20056;-60
2024/01/20 03:09:32;;;;;;;28.95;15.93;;;;;;;0.46;82.15;102423.16;5083844;28;20419;-62
2024/01/20 03:12:01;;;;;;;27.50;15.30;;;;;;;0.52;82.16;102424.22;5067174;28;20055;-58
2024/01/20 03:14:29;;;;;;;29.00;15.77;;;;;;;0.77;81.49;102415.25;5053364;28;20052;-61
2024/01/20 03:16:56;;;;;;;27.00;14.65;;;;;;;0.48;80.61;102421.06;5045237;28;20315;-61
2024/01/20 03:19:24;;;;;;;27.80;15.52;;;;;;;0.49;81.46;102427.34;5028030;28;20057;-64
2024/01/20 03:21:51;;;;;;;29.77;16.75;;;;;;;0.38;81.78;102415.22;5026337;28;20440;-58
2024/01/20 03:24:19;;;;;;;34.63;16.55;;;;;;;0.29;81.71;102412.91;5048841;28;20067;-60
2024/01/20 03:26:47;;;;;;;29.42;16.85;;;;;;;0.41;81.61;102428.34;5046687;28;20586;-58
2024/01/20 03:29:14;;;;;;;29.65;16.25;;;;;;;0.49;81.51;102424.63;5046277;28;20048;-58
2024/01/20 03:31:42;;;;;;;29.27;16.08;;;;;;;0.49;81.05;102430.88;5077133;28;20052;-60
2024/01/20 03:34:09;;;;;;;31.58;16.42;;;;;;;0.27;81.22;102436.66;5045094;28;20068;-60
2024/01/20 03:36:37;;;;;;;31.00;16.38;;;;;;;0.30;81.22;102423.53;5055164;28;20060;-60
2024/01/20 03:39:04;;;;;;;28.23;17.00;;;;;;;0.30;81.73;102426.22;5067343;28;20045;-58
2024/01/20 03:41:31;;;;;;;31.45;16.63;;;;;;;0.11;81.51;102421.59;5059514;28;20079;-60
2024/01/20 03:43:59;;;;;;;30.60;15.75;;;;;;;0.15;81.83;102438.28;5046276;28;20428;-58
2024/01/20 03:46:26;;;;;;;28.80;16.60;;;;;;;0.27;81.67;102421.22;5046219;28;20052;-59
2024/01/20 03:48:53;;;;;;;34.22;17.20;;;;;;;0.10;80.91;102427.22;5045377;28;20551;-60
2024/01/20 03:51:26;;;;;;;29.23;16.83;;;;;;;-0.18;82.72;102444.41;5044442;28;20057;-60
2024/01/20 03:53:54;;;;;;;32.30;17.48;;;;;;;0.16;82.55;102435.34;5045978;28;20053;-58
2024/01/20 03:56:22;;;;;;;28.42;16.90;;;;;;;0.44;81.62;102427.09;5047743;28;20613;-60
2024/01/20 03:58:49;;;;;;;32.75;18.30;;;;;;;0.51;80.68;102430.66;5064830;28;20056;-62
2024/01/20 04:01:23;;;;;;;34.72;15.82;;;;;;;0.46;80.85;102430.44;5069447;28;20055;-62
2024/01/20 04:04:08;;;;;;;32.80;16.88;;;;;;;0.28;80.61;102438.34;5067511;28;20123;-59
2024/01/20 04:06:35;;;;;;;34.78;16.75;;;;;;;0.30;80.96;102442.50;5067370;28;20457;-58
2024/01/20 04:09:03;;;;;;;28.08;16.73;;;;;;;0.38;80.59;102439.63;5065965;28;20052;-59
2024/01/20 04:11:31;;;;;;;30.33;17.00;;;;;;;0.38;79.78;102442.31;5049903;28;20053;-61
2024/01/20 04:13:58;;;;;;;32.65;16.95;;;;;;;0.17;80.94;102450.59;5038361;28;20603;-59
2024/01/20 04:16:25;;;;;;;31.42;16.17;;;;;;;0.38;80.54;102446.91;5043991;28;20061;-59
2024/01/20 04:18:53;;;;;;;31.10;16.52;;;;;;;0.45;79.79;102431.50;5031156;28;20049;-58
2024/01/20 04:21:22;;;;;;;27.98;15.65;;;;;;;0.38;79.98;102442.31;5067567;28;20598;-61
2024/01/20 04:23:49;;;;;;;34.63;17.13;;;;;;;0.32;80.34;102445.84;5049008;28;20064;-59
2024/01/20 04:26:17;;;;;;;29.88;15.85;;;;;;;0.49;79.83;102438.19;5031474;28;20060;-57
2024/01/20 04:28:44;;;;;;;30.83;16.42;;;;;;;0.57;78.66;102440.69;5045895;28;20057;-60
2024/01/20 04:31:11;;;;;;;30.25;16.42;;;;;;;0.37;79.35;102446.06;5044662;28;20060;-59
2024/01/20 04:33:40;;;;;;;31.75;15.65;;;;;;;0.02;80.40;102444.47;5048832;28;20045;-61
2024/01/20 04:36:09;;;;;;;32.67;17.65;;;;;;;0.25;80.63;102446.84;5043318;28;20419;-58
2024/01/20 04:38:36;;;;;;;32.67;16.77;;;;;;;0.48;78.55;102439.22;5069402;28;20071;-58
2024/01/20 04:41:03;;;;;;;29.83;16.02;;;;;;;0.28;78.95;102439.16;5034256;28;20057;-58
2024/01/20 04:43:31;;;;;;;31.98;16.83;;;;;;;0.26;79.09;102441.25;5049323;28;20052;-60
2024/01/20 04:45:58;;;;;;;28.98;15.95;;;;;;;0.51;79.52;102433.38;5049728;28;20052;-59
2024/01/20 04:48:25;;;;;;;31.40;16.73;;;;;;;0.34;78.83;102440.22;5042072;28;20052;-60
2024/01/20 04:50:53;;;;;;;29.98;15.57;;;;;;;0.10;79.23;102451.59;5033863;28;20060;-58
2024/01/20 04:53:21;;;;;;;28.10;15.63;;;;;;;0.01;80.66;102453.66;5030954;28;20767;-60
2024/01/20 04:55:48;;;;;;;30.88;16.02;;;;;;;0.07;80.62;102458.25;5030853;28;20049;-58
2024/01/20 04:58:15;;;;;;;31.73;16.25;;;;;;;0.16;80.57;102453.50;5080110;28;20421;-60
2024/01/20 05:00:44;;;;;;;30.15;15.85;;;;;;;0.24;80.37;102461.44;5043837;28;20061;-59
2024/01/20 05:03:11;;;;;;;36.60;17.38;;;;;;;0.32;79.79;102464.81;5029512;28;20061;-58
2024/01/20 05:05:39;;;;;;;30.02;15.88;;;;;;;-0.02;80.67;102470.31;5045509;28;20516;-61
2024/01/20 05:08:06;;;;;;;33.55;16.92;;;;;;;0.18;81.01;102468.50;5030800;28;20057;-58
2024/01/20 05:10:34;;;;;;;29.10;15.75;;;;;;;0.14;81.24;102464.53;5030802;28;20390;-60
2024/01/20 05:13:03;;;;;;;29.73;16.60;;;;;;;0.30;80.80;102457.94;5031098;28;20057;-60
2024/01/20 05:15:31;;;;;;;31.30;15.57;;;;;;;0.17;81.03;102458.72;5046878;28;20053;-62
2024/01/20 05:17:58;;;;;;;31.38;16.77;;;;;;;0.39;80.16;102453.97;5046030;28;20068;-59
2024/01/20 05:20:26;;;;;;;29.20;16.02;;;;;;;0.20;80.25;102457.47;5044653;28;20065;-60
2024/01/20 05:22:53;;;;;;;31.85;15.82;;;;;;;0.31;79.97;102456.88;5030782;28;20061;-61
2024/01/20 05:25:20;;;;;;;30.40;15.55;;;;;;;0.62;79.52;102459.88;5057918;28;20056;-59
2024/01/20 05:27:48;;;;;;;31.30;16.52;;;;;;;0.17;79.32;102471.44;5050398;28;20057;-60
2024/01/20 05:30:15;;;;;;;30.58;16.25;;;;;;;0.26;79.39;102467.50;5049472;28;20041;-61
2024/01/20 05:32:42;;;;;;;29.88;15.88;;;;;;;-0.07;79.80;102465.47;5055591;28;20060;-59
2024/01/20 05:35:12;;;;;;;29.08;15.85;;;;;;;-0.03;80.33;102469.47;5049856;28;20067;-60
2024/01/20 05:37:39;;;;;;;28.15;15.73;;;;;;;-0.13;81.42;102460.03;5067615;28;20059;-58
2024/01/20 05:40:07;;;;;;;32.60;15.65;;;;;;;-0.16;81.26;102461.25;5055028;28;20060;-58
2024/01/20 05:42:34;;;;;;;31.15;16.40;;;;;;;-0.12;80.83;102459.84;5049600;28;20053;-60
2024/01/20 05:45:02;;;;;;;30.73;16.15;;;;;;;-0.13;80.59;102462.75;5050424;28;20047;-60
2024/01/20 05:47:29;;;;;;;30.60;15.05;;;;;;;-0.07;80.97;102451.13;5050554;28;20064;-59
2024/01/20 05:49:57;;;;;;;31.70;15.98;;;;;;;0.07;80.62;102457.44;5050451;28;20053;-60
2024/01/20 05:52:24;;;;;;;27.58;14.63;;;;;;;-0.22;80.70;102461.22;5048349;28;20463;-60
2024/01/20 05:54:51;;;;;;;30.13;16.05;;;;;;;-0.44;81.44;102473.19;5050255;28;20582;-59
2024/01/20 05:57:18;;;;;;;29.35;15.00;;;;;;;-0.30;81.80;102467.63;5059373;28;20061;-61
2024/01/20 05:59:46;;;;;;;27.25;16.08;;;;;;;-0.15;81.49;102471.06;5068697;28;20063;-63
2024/01/20 06:02:13;;;;;;;27.42;15.23;;;;;;;0.10;81.18;102471.41;5082624;28;20768;-62
2024/01/20 06:04:40;;;;;;;31.38;16.30;;;;;;;0.07;79.60;102479.09;5049709;28;20060;-59
2024/01/20 06:07:10;;;;;;;26.25;15.38;;;;;;;-0.12;80.35;102480.66;5048229;28;20064;-60
2024/01/20 06:09:38;;;;;;;30.77;16.15;;;;;;;0.00;80.79;102473.66;5049729;28;20064;-59
2024/01/20 06:12:06;;;;;;;32.47;16.38;;;;;;;-0.06;80.42;102474.44;5048321;28;20515;-58
2024/01/20 06:14:43;;;;;;;34.53;16.75;;;;;;;0.16;81.00;102475.19;5049805;28;20547;-61
2024/01/20 06:17:32;;;;;;;35.97;16.67;;;;;;;-0.08;81.09;102468.41;5035168;28;20045;-61
2024/01/20 06:20:23;;;;;;;27.40;15.98;;;;;;;-0.04;80.70;102469.66;5028748;28;20587;-62
2024/01/20 06:22:51;;;;;;;32.13;16.63;;;;;;;-0.20;80.86;102473.56;5029704;28;20054;-59
2024/01/20 06:25:18;;;;;;;30.90;16.73;;;;;;;-0.12;81.72;102477.94;5048828;28;20056;-61
2024/01/20 06:27:45;;;;;;;33.35;16.27;;;;;;;0.03;81.27;102482.19;5047945;28;20052;-59
2024/01/20 06:30:13;;;;;;;35.13;16.38;;;;;;;-0.14;81.13;102474.63;5048849;28;20629;-60
2024/01/20 06:32:40;;;;;;;33.03;17.15;;;;;;;-0.19;81.63;102475.22;5048937;28;20052;-60
2024/01/20 06:35:08;;;;;;;34.10;16.67;;;;;;;-0.11;81.60;102485.06;5048702;28;20783;-61
2024/01/20 06:37:35;;;;;;;35.38;16.27;;;;;;;0.00;81.25;102477.19;5047658;28;20056;-60
2024/01/20 06:40:03;;;;;;;30.50;15.68;;;;;;;-0.22;81.64;102482.91;5049305;28;20790;-57
2024/01/20 06:42:30;;;;;;;31.77;16.63;;;;;;;-0.14;82.26;102480.84;5048688;28;20052;-60
2024/01/20 06:44:58;;;;;;;34.00;16.70;;;;;;;-0.19;81.47;102480.63;5048852;28;20697;-60
2024/01/20 06:47:29;;;;;;;35.63;16.77;;;;;;;-0.19;82.71;102487.91;5048978;28;20061;-57
2024/01/20 06:49:57;;;;;;;29.73;16.38;;;;;;;-0.19;82.22;102483.34;5048513;28;20045;-58
2024/01/20 06:52:24;;;;;;;33.40;17.50;;;;;;;-0.20;81.54;102492.50;5048934;28;20053;-57
2024/01/20 06:54:51;;;;;;;33.70;17.08;;;;;;;-0.22;82.34;102502.69;5048440;28;20064;-59
2024/01/20 06:57:18;;;;;;;30.08;17.00;;;;;;;-0.21;81.56;102507.06;5057768;28;20496;-59
2024/01/20 06:59:46;;;;;;;29.98;16.50;;;;;;;-0.18;82.57;102511.25;5041807;28;20060;-60
2024/01/20 07:02:13;;;;;;;33.13;18.33;;;;;;;-0.12;81.59;102511.28;5030567;28;20053;-63
2024/01/20 07:04:41;;;;;;;29.98;17.25;;;;;;;-0.10;81.77;102522.75;5063364;28;20527;-61
2024/01/20 07:07:12;;;;;;;27.75;16.58;;;;;;;-0.12;81.37;102518.56;5080476;28;20048;-60
2024/01/20 07:09:40;;;;;;;33.72;18.15;;;;;;;-0.13;81.29;102525.03;5048379;28;20068;-60
2024/01/20 07:12:07;;;;;;;33.30;18.15;;;;;;;-0.39;82.50;102517.59;5046834;28;20045;-62
2024/01/20 07:14:35;;;;;;;36.78;19.08;;;;;;;-0.16;82.75;102507.28;5045872;28;20053;-61
2024/01/20 07:17:05;;;;;;;31.92;17.83;;;;;;;-0.09;82.18;102508.16;5048554;28;20049;-59
2024/01/20 07:19:32;;;;;;;;;;;;;;;-0.41;82.56;102516.94;5031227;28;20057;-61
2024/01/20 07:21:59;;;;;;;34.83;17.70;;;;;;;-0.23;83.12;102527.25;5038375;28;19925;-59
2024/01/20 07:24:27;;;;;;;36.42;20.52;;;;;;;-0.27;82.52;102515.16;5043613;28;20581;-59
2024/01/20 07:26:55;;;;;;;35.38;19.50;;;;;;;-0.15;82.21;102519.81;5026363;28;20057;-58
2024/01/20 07:29:23;;;;;;;37.95;20.15;;;;;;;-0.35;82.57;102518.84;5043932;28;20053;-62
2024/01/20 07:31:50;;;;;;;36.17;20.33;;;;;;;-0.19;82.46;102523.09;5046969;28;20052;-61
2024/01/20 07:34:17;;;;;;;34.55;18.10;;;;;;;-0.20;82.49;102522.28;5041403;28;20056;-60
2024/01/20 07:36:45;;;;;;;36.53;19.33;;;;;;;-0.08;82.53;102519.84;5080914;28;20067;-59
2024/01/20 07:39:12;;;;;;;33.67;18.58;;;;;;;-0.11;81.61;102520.25;5068405;28;20071;-64
2024/01/20 07:41:40;;;;;;;36.58;18.73;;;;;;;-0.01;82.14;102521.56;5059727;28;20053;-64
2024/01/20 07:44:07;;;;;;;37.10;19.58;;;;;;;-0.40;81.36;102523.19;5047598;28;20527;-63
2024/01/20 07:46:34;;;;;;;32.83;18.33;;;;;;;-0.26;83.13;102523.06;5031858;28;20056;-63
2024/01/20 07:49:18;;;;;;;37.38;20.33;;;;;;;-0.30;82.88;102513.66;5054614;28;20060;-63
2024/01/20 07:51:56;;;;;;;39.35;20.85;;;;;;;-0.12;82.33;102518.56;5052609;28;20045;-63
2024/01/20 07:54:23;;;;;;;36.45;19.35;;;;;;;-0.04;82.00;102527.41;5028664;28;20064;-60
2024/01/20 07:56:51;;;;;;;39.78;19.27;;;;;;;-0.03;82.07;102529.06;5042900;28;20048;-57
2024/01/20 07:59:18;;;;;;;38.78;19.80;;;;;;;0.25;81.47;102537.09;5032773;28;20072;-59
2024/01/20 08:01:45;;;;;;;38.45;19.85;;;;;;;0.06;81.15;102539.72;5049707;28;20041;-61
2024/01/20 08:04:12;;;;;;;37.35;20.23;;;;;;;-0.07;81.21;102544.03;5051789;28;20068;-61
2024/01/20 08:06:40;;;;;;;40.08;20.13;;;;;;;-0.13;81.26;102542.13;5066526;28;20053;-64
2024/01/20 08:09:10;;;;;;;39.03;20.95;;;;;;;-0.14;82.24;102545.03;5053132;28;20075;-64
2024/01/20 08:11:38;;;;;;;41.63;21.60;;;;;;;0.03;80.89;102542.81;5049120;28;20053;-62
2024/01/20 08:14:08;;;;;;;42.35;20.10;;;;;;;0.35;80.67;102547.59;5052659;28;20049;-64
2024/01/20 08:16:35;;;;;;;41.70;20.77;;;;;;;-0.12;80.76;102540.22;5034123;28;20179;-63
2024/01/20 08:19:03;;;;;;;41.60;21.35;;;;;;;0.11;80.52;102545.38;5051639;28;20049;-62
2024/01/20 08:21:31;;;;;;;42.58;22.48;;;;;;;-0.03;80.50;102548.00;5052259;28;20048;-63
2024/01/20 08:23:59;;;;;;;43.40;21.42;;;;;;;-0.23;80.91;102546.22;5051578;28;20590;-63
2024/01/20 08:26:26;;;;;;;41.72;21.58;;;;;;;-0.24;82.22;102548.09;5067967;28;20562;-64
2024/01/20 08:28:53;;;;;;;41.25;22.20;;;;;;;-0.12;81.59;102542.94;5065225;28;20498;-63
2024/01/20 08:31:21;;;;;;;40.28;21.70;;;;;;;-0.24;82.57;102553.50;5052275;28;20060;-63
2024/01/20 08:33:48;;;;;;;41.05;22.42;;;;;;;-0.21;81.74;102547.69;5051081;28;20079;-63
2024/01/20 08:36:15;;;;;;;46.72;23.35;;;;;;;-0.07;81.82;102549.44;5056434;28;20059;-64
2024/01/20 08:38:43;;;;;;;41.53;21.45;;;;;;;0.06;81.48;102545.13;5071296;28;20072;-63
2024/01/20 08:41:10;;;;;;;40.75;21.88;;;;;;;-0.07;81.13;102544.03;5065288;28;20067;-64
2024/01/20 08:43:41;;;;;;;41.55;21.95;;;;;;;-0.19;81.71;102542.91;5049784;28;20535;-63
2024/01/20 08:46:10;;;;;;;45.20;21.25;;;;;;;-0.28;82.51;102546.78;5050931;28;20060;-63
2024/01/20 08:48:40;;;;;;;38.88;21.45;;;;;;;-0.23;82.48;102557.84;5050663;28;20085;-63
2024/01/20 08:51:07;;;;;;;38.50;20.48;;;;;;;-0.23;82.85;102547.03;5065669;28;20056;-64
2024/01/20 08:53:35;;;;;;;38.80;20.67;;;;;;;-0.15;82.10;102546.06;5050450;28;20049;-64
2024/01/20 08:56:03;;;;;;;39.40;20.92;;;;;;;-0.01;82.40;102545.94;5038963;28;20057;-63
2024/01/20 08:58:31;;;;;;;40.45;20.13;;;;;;;0.16;81.31;102553.75;5048754;28;20416;-63
2024/01/20 09:00:58;;;;;;;37.53;20.35;;;;;;;0.18;80.77;102549.78;5028870;28;20050;-64
2024/01/20 09:03:26;;;;;;;36.67;20.60;;;;;;;0.23;80.25;102554.63;5031227;28;20057;-63
2024/01/20 09:05:53;;;;;;;41.35;21.92;;;;;;;0.21;80.16;102556.69;5029150;28;20064;-64
2024/01/20 09:08:20;;;;;;;39.03;20.90;;;;;;;0.03;81.10;102556.38;5035058;28;20531;-63
2024/01/20 09:10:48;;;;;;;41.55;21.90;;;;;;;-0.10;81.58;102549.00;5049261;28;20522;-62
2024/01/20 09:13:17;;;;;;;45.47;22.25;;;;;;;-0.07;81.27;102540.50;5050930;28;20049;-63
2024/01/20 09:15:45;;;;;;;38.72;19.05;;;;;;;-0.02;81.75;102541.53;5050772;28;20424;-65
2024/01/20 09:18:16;;;;;;;35.80;19.27;;;;;;;-0.15;82.41;102540.63;5041357;28;20041;-62
2024/01/20 09:20:43;;;;;;;37.75;19.50;;;;;;;0.17;81.72;102541.88;5036473;28;20053;-62
2024/01/20 09:23:10;;;;;;;38.17;19.17;;;;;;;0.44;82.01;102538.22;5043186;28;20065;-64
2024/01/20 09:25:38;;;;;;;36.90;18.88;;;;;;;0.45;81.21;102538.06;5046424;28;20056;-63
2024/01/20 09:28:06;;;;;;;35.70;18.70;;;;;;;-0.03;79.99;102533.63;5070191;28;20049;-64
2024/01/20 09:30:35;;;;;;;40.80;18.33;;;;;;;0.01;81.24;102537.63;5056847;28;20049;-60
2024/01/20 09:33:06;;;;;;;37.38;19.83;;;;;;;0.21;81.22;102529.59;5043523;28;20057;-62
2024/01/20 09:35:34;;;;;;;36.55;18.10;;;;;;;0.36;80.07;102533.00;5035464;28;20054;-62
2024/01/20 09:38:03;;;;;;;35.20;18.77;;;;;;;0.23;79.96;102528.34;5036945;28;20453;-63
2024/01/20 09:40:32;;;;;;;35.15;18.38;;;;;;;0.34;79.76;102532.34;5032143;28;20060;-62
2024/01/20 09:43:00;;;;;;;35.55;18.00;;;;;;;0.29;79.95;102535.69;5044059;28;20053;-62
2024/01/20 09:45:27;;;;;;;35.30;18.42;;;;;;;0.36;80.19;102531.13;5068453;28;20057;-63
2024/01/20 09:47:57;;;;;;;35.70;18.30;;;;;;;0.43;78.91;102532.00;5061809;28;20052;-64
2024/01/20 09:50:25;;;;;;;32.22;17.63;;;;;;;0.10;79.36;102522.88;5057469;28;20049;-64
2024/01/20 09:53:00;;;;;;;35.17;18.02;;;;;;;0.35;79.48;102526.72;5053436;28;20049;-63
2024/01/20 09:55:27;;;;;;;43.35;18.88;;;;;;;0.40;79.64;102531.56;5038733;28;20060;-62
2024/01/20 09:57:55;;;;;;;33.28;18.40;;;;;;;0.48;79.42;102534.94;5042984;28;20055;-63
2024/01/20 10:00:23;;;;;;;34.70;18.23;;;;;;;0.56;79.63;102525.78;5044257;28;20071;-64
2024/01/20 10:02:51;;;;;;;38.25;19.17;;;;;;;0.65;78.66;102525.38;5037848;28;20698;-62
2024/01/20 10:05:27;;;;;;;34.08;18.30;;;;;;;0.94;77.73;102519.59;5044771;28;20056;-63
2024/01/20 10:07:54;;;;;;;37.78;18.52;;;;;;;0.75;77.44;102525.00;5047605;28;20057;-63
2024/01/20 10:10:22;;;;;;;35.97;17.70;;;;;;;0.54;78.00;102527.88;5055118;28;20076;-63
2024/01/20 10:12:54;;;;;;;30.90;17.15;;;;;;;0.75;78.03;102522.28;5037461;28;20045;-62
2024/01/20 10:15:25;;;;;;;31.48;17.77;;;;;;;0.53;77.47;102520.75;5038203;28;20048;-63
2024/01/20 10:17:59;;;;;;;37.53;17.52;;;;;;;0.55;77.70;102511.38;5033237;28;20053;-63
2024/01/20 10:20:31;;;;;;;35.10;17.73;;;;;;;0.51;77.86;102506.56;5023909;28;20048;-62
2024/01/20 10:23:03;;;;;;;36.90;19.17;;;;;;;0.75;77.43;102512.25;5033496;28;20801;-64
2024/01/20 10:25:31;;;;;;;34.28;18.20;;;;;;;0.74;78.04;102517.91;5040634;28;20060;-63
2024/01/20 10:27:58;;;;;;;34.70;18.10;;;;;;;0.80;77.57;102522.50;5030056;28;20049;-66
2024/01/20 10:30:26;;;;;;;34.55;17.90;;;;;;;1.01;77.31;102516.91;5043784;28;20057;-67
2024/01/20 10:32:53;;;;;;;31.98;17.38;;;;;;;1.41;77.23;102510.47;5042837;28;20049;-64
2024/01/20 10:35:35;;;;;;;32.20;17.73;;;;;;;1.70;77.17;102501.03;5032394;28;20067;-63
2024/01/20 10:38:07;;;;;;;35.53;18.55;;;;;;;1.53;75.17;102516.09;5036415;28;20049;-66
2024/01/20 10:40:36;;;;;;;35.45;18.45;;;;;;;1.21;75.17;102511.50;5068186;28;20072;-66
2024/01/20 10:43:13;;;;;;;35.33;17.52;;;;;;;1.31;75.36;102506.50;5025887;28;20064;-65
2024/01/20 10:45:46;;;;;;;32.95;17.77;;;;;;;1.15;75.22;102515.91;5044564;28;20060;-66
2024/01/20 10:48:17;;;;;;;32.75;17.42;;;;;;;1.26;75.01;102511.69;5036645;28;20052;-65
2024/01/20 10:50:48;;;;;;;35.20;18.15;;;;;;;1.06;75.51;102517.13;5036124;28;20184;-64
2024/01/20 10:53:15;;;;;;;34.10;18.30;;;;;;;0.90;75.97;102507.50;5028585;28;20055;-66
2024/01/20 10:55:45;;;;;;;28.95;16.63;;;;;;;1.20;75.58;102509.81;5045233;28;20512;-64
2024/01/20 10:58:19;;;;;;;30.70;18.23;;;;;;;1.22;75.12;102510.47;5053691;28;20053;-65
2024/01/20 11:00:48;;;;;;;38.58;17.70;;;;;;;1.28;75.52;102509.63;5030019;28;20489;-65
2024/01/20 11:03:16;;;;;;;31.17;17.70;;;;;;;1.36;74.74;102514.84;5024205;28;20045;-66
2024/01/20 11:05:47;;;;;;;29.85;16.98;;;;;;;1.42;74.00;102506.69;5032088;28;20053;-65
2024/01/20 11:08:23;;;;;;;32.60;16.83;;;;;;;1.58;73.98;102497.28;5037617;28;20448;-65
2024/01/20 11:10:52;;;;;;;30.83;17.05;;;;;;;1.46;73.57;102499.81;5032872;28;20057;-67
2024/01/20 11:13:23;;;;;;;29.92;17.20;;;;;;;1.63;73.55;102498.31;5033639;28;20515;-65
2024/01/20 11:15:51;;;;;;;35.78;17.58;;;;;;;1.72;72.68;102491.63;5042055;28;20056;-65
2024/01/20 11:18:20;;;;;;;30.35;17.75;;;;;;;1.77;72.72;102497.25;5031522;28;20045;-65
2024/01/20 11:21:01;;;;;;;32.55;16.95;;;;;;;1.69;72.82;102491.22;5031390;28;20072;-64
2024/01/20 11:23:29;;;;;;;31.40;16.85;;;;;;;1.71;72.61;102487.22;5062695;28;20040;-65